sensor_id;sensor_type;location;lat;lon;timestamp;pressure;altitude;pressure_sealevel;temperature;humidity
56719;BME280;42597;40.636;0.278;2023-04-30T00:01:38;97172.91;;;20.36;69.53
56719;BME280;42597;40.636;0.278;2023-04-30T00:04:04;97164.94;;;20.49;68.30
56719;BME280;42597;40.636;0.278;2023-04-30T00:06:29;97165.31;;;20.13;67.59
56719;BME280;42597;40.636;0.278;2023-04-30T00:08:56;97163.75;;;20.50;71.47
56719;BME280;42597;40.636;0.278;2023-04-30T00:11:21;97166.91;;;20.10;68.45
56719;BME280;42597;40.636;0.278;2023-04-30T00:13:48;97150.03;;;20.46;68.66
56719;BME280;42597;40.636;0.278;2023-04-30T00:16:13;97159.78;;;20.16;68.23
56719;BME280;42597;40.636;0.278;2023-04-30T00:18:39;97138.09;;;19.95;69.21
56719;BME280;42597;40.636;0.278;2023-04-30T00:21:05;97155.94;;;20.10;73.20
56719;BME280;42597;40.636;0.278;2023-04-30T00:23:30;97147.19;;;20.23;68.58
56719;BME280;42597;40.636;0.278;2023-04-30T00:25:56;97156.94;;;19.86;68.26
56719;BME280;42597;40.636;0.278;2023-04-30T00:28:21;97154.06;;;19.62;69.06
56719;BME280;42597;40.636;0.278;2023-04-30T00:30:47;97141.63;;;19.92;69.78
56719;BME280;42597;40.636;0.278;2023-04-30T00:33:12;97145.25;;;20.19;70.38
56719;BME280;42597;40.636;0.278;2023-04-30T00:35:38;97149.38;;;20.01;67.72
56719;BME280;42597;40.636;0.278;2023-04-30T00:38:04;97147.75;;;20.41;70.56
56719;BME280;42597;40.636;0.278;2023-04-30T00:40:30;97137.47;;;20.52;71.41
56719;BME280;42597;40.636;0.278;2023-04-30T00:42:55;97145.63;;;20.21;69.70
56719;BME280;42597;40.636;0.278;2023-04-30T00:45:21;97138.16;;;20.22;68.35
56719;BME280;42597;40.636;0.278;2023-04-30T00:47:47;97139.97;;;20.36;69.25
56719;BME280;42597;40.636;0.278;2023-04-30T00:50:14;97126.56;;;20.11;67.72
56719;BME280;42597;40.636;0.278;2023-04-30T00:52:43;97126.72;;;20.31;67.33
56719;BME280;42597;40.636;0.278;2023-04-30T00:55:12;97119.22;;;20.35;68.58
56719;BME280;42597;40.636;0.278;2023-04-30T00:57:38;97120.38;;;20.34;70.23
56719;BME280;42597;40.636;0.278;2023-04-30T01:00:06;97118.84;;;20.33;71.29
56719;BME280;42597;40.636;0.278;2023-04-30T01:02:38;97117.06;;;19.81;66.50
56719;BME280;42597;40.636;0.278;2023-04-30T01:05:04;97120.94;;;20.21;67.12
56719;BME280;42597;40.636;0.278;2023-04-30T01:07:30;97121.66;;;19.91;69.42
56719;BME280;42597;40.636;0.278;2023-04-30T01:09:56;97128.06;;;20.46;66.88
56719;BME280;42597;40.636;0.278;2023-04-30T01:18:12;97129.13;;;20.86;72.12
56719;BME280;42597;40.636;0.278;2023-04-30T01:20:49;97117.38;;;20.25;67.11
56719;BME280;42597;40.636;0.278;2023-04-30T01:28:58;97119.66;;;20.30;66.04
56719;BME280;42597;40.636;0.278;2023-04-30T01:31:27;97109.66;;;20.12;66.09
56719;BME280;42597;40.636;0.278;2023-04-30T01:33:53;97119.59;;;19.61;66.25
56719;BME280;42597;40.636;0.278;2023-04-30T01:36:20;97107.69;;;19.79;66.52
56719;BME280;42597;40.636;0.278;2023-04-30T01:39:18;97111.75;;;19.63;65.31
56719;BME280;42597;40.636;0.278;2023-04-30T01:47:27;97112.09;;;19.69;67.88
56719;BME280;42597;40.636;0.278;2023-04-30T01:52:41;97078.88;;;20.32;65.61
56719;BME280;42597;40.636;0.278;2023-04-30T01:55:14;97092.28;;;20.26;66.39
56719;BME280;42597;40.636;0.278;2023-04-30T01:57:50;97079.75;;;19.91;66.04
56719;BME280;42597;40.636;0.278;2023-04-30T02:00:17;97072.53;;;19.70;65.21
56719;BME280;42597;40.636;0.278;2023-04-30T02:02:43;97061.44;;;19.81;65.96
56719;BME280;42597;40.636;0.278;2023-04-30T02:05:09;97068.25;;;20.03;73.24
56719;BME280;42597;40.636;0.278;2023-04-30T02:07:42;97068.47;;;19.82;68.05
56719;BME280;42597;40.636;0.278;2023-04-30T02:10:09;97070.25;;;20.30;72.11
56719;BME280;42597;40.636;0.278;2023-04-30T02:12:36;97062.34;;;19.70;64.30
56719;BME280;42597;40.636;0.278;2023-04-30T02:15:04;97060.78;;;19.69;63.99
56719;BME280;42597;40.636;0.278;2023-04-30T02:17:30;97058.31;;;19.82;68.56
56719;BME280;42597;40.636;0.278;2023-04-30T02:19:57;97052.81;;;19.82;67.21
56719;BME280;42597;40.636;0.278;2023-04-30T02:22:22;97048.19;;;19.76;66.65
56719;BME280;42597;40.636;0.278;2023-04-30T02:24:48;97030.56;;;20.38;68.27
56719;BME280;42597;40.636;0.278;2023-04-30T02:27:14;97041.63;;;20.00;64.77
56719;BME280;42597;40.636;0.278;2023-04-30T02:29:40;97037.25;;;19.72;70.06
56719;BME280;42597;40.636;0.278;2023-04-30T02:32:06;97040.13;;;19.95;70.22
56719;BME280;42597;40.636;0.278;2023-04-30T02:34:31;97039.47;;;19.84;69.64
56719;BME280;42597;40.636;0.278;2023-04-30T02:36:57;97036.13;;;20.04;68.09
56719;BME280;42597;40.636;0.278;2023-04-30T02:39:22;97045.22;;;20.58;71.58
56719;BME280;42597;40.636;0.278;2023-04-30T02:41:48;97070.63;;;19.63;65.74
56719;BME280;42597;40.636;0.278;2023-04-30T02:44:14;97053.59;;;19.83;71.83
56719;BME280;42597;40.636;0.278;2023-04-30T02:46:40;97053.63;;;20.13;72.42
56719;BME280;42597;40.636;0.278;2023-04-30T02:49:05;97051.16;;;20.23;68.58
56719;BME280;42597;40.636;0.278;2023-04-30T02:51:31;97036.53;;;20.02;70.70
56719;BME280;42597;40.636;0.278;2023-04-30T02:53:57;97056.47;;;20.06;64.75
56719;BME280;42597;40.636;0.278;2023-04-30T02:56:23;97066.03;;;19.91;65.76
56719;BME280;42597;40.636;0.278;2023-04-30T02:58:48;97041.09;;;20.43;71.08
56719;BME280;42597;40.636;0.278;2023-04-30T03:01:14;97053.81;;;19.99;68.73
56719;BME280;42597;40.636;0.278;2023-04-30T03:03:40;97043.97;;;20.02;70.19
56719;BME280;42597;40.636;0.278;2023-04-30T03:06:05;97036.53;;;20.33;71.47
56719;BME280;42597;40.636;0.278;2023-04-30T03:08:31;97029.19;;;19.13;65.90
56719;BME280;42597;40.636;0.278;2023-04-30T03:10:56;97012.91;;;19.78;67.89
56719;BME280;42597;40.636;0.278;2023-04-30T03:13:22;97036.50;;;19.71;65.05
56719;BME280;42597;40.636;0.278;2023-04-30T03:15:56;97020.06;;;19.68;66.58
56719;BME280;42597;40.636;0.278;2023-04-30T03:18:22;97025.25;;;19.93;69.78
56719;BME280;42597;40.636;0.278;2023-04-30T03:20:48;97044.28;;;19.32;65.19
56719;BME280;42597;40.636;0.278;2023-04-30T03:23:14;97025.84;;;20.11;69.63
56719;BME280;42597;40.636;0.278;2023-04-30T03:25:39;97030.25;;;19.67;68.62
56719;BME280;42597;40.636;0.278;2023-04-30T03:28:05;97056.50;;;19.23;66.38
56719;BME280;42597;40.636;0.278;2023-04-30T03:30:30;97041.50;;;18.94;64.54
56719;BME280;42597;40.636;0.278;2023-04-30T03:32:56;97026.41;;;19.20;65.83
56719;BME280;42597;40.636;0.278;2023-04-30T03:35:21;97083.84;;;19.31;65.99
56719;BME280;42597;40.636;0.278;2023-04-30T03:37:47;97059.66;;;19.67;70.87
56719;BME280;42597;40.636;0.278;2023-04-30T03:40:13;97067.84;;;20.05;70.73
56719;BME280;42597;40.636;0.278;2023-04-30T03:42:38;97055.09;;;19.01;64.89
56719;BME280;42597;40.636;0.278;2023-04-30T03:45:04;97052.81;;;19.82;69.86
56719;BME280;42597;40.636;0.278;2023-04-30T03:47:30;97030.69;;;19.21;68.55
56719;BME280;42597;40.636;0.278;2023-04-30T03:49:55;97023.97;;;19.26;67.07
56719;BME280;42597;40.636;0.278;2023-04-30T03:52:21;97017.38;;;19.23;65.90
56719;BME280;42597;40.636;0.278;2023-04-30T03:54:47;97033.63;;;19.41;63.84
56719;BME280;42597;40.636;0.278;2023-04-30T03:57:12;97014.66;;;19.19;68.18
56719;BME280;42597;40.636;0.278;2023-04-30T03:59:39;97010.72;;;18.76;66.54
56719;BME280;42597;40.636;0.278;2023-04-30T04:02:06;97022.34;;;18.90;69.60
56719;BME280;42597;40.636;0.278;2023-04-30T04:04:32;97015.28;;;18.93;66.02
56719;BME280;42597;40.636;0.278;2023-04-30T04:06:58;97033.19;;;19.01;70.51
56719;BME280;42597;40.636;0.278;2023-04-30T04:09:23;97034.13;;;18.84;66.98
56719;BME280;42597;40.636;0.278;2023-04-30T04:11:49;97034.03;;;18.98;69.28
56719;BME280;42597;40.636;0.278;2023-04-30T04:14:15;97033.72;;;18.15;67.02
56719;BME280;42597;40.636;0.278;2023-04-30T04:16:41;97037.31;;;19.23;68.58
56719;BME280;42597;40.636;0.278;2023-04-30T04:19:07;97055.38;;;18.62;68.89
56719;BME280;42597;40.636;0.278;2023-04-30T04:21:32;97051.38;;;17.93;66.67
56719;BME280;42597;40.636;0.278;2023-04-30T04:23:58;97057.66;;;18.78;73.10
56719;BME280;42597;40.636;0.278;2023-04-30T04:26:23;97041.81;;;19.03;74.92
56719;BME280;42597;40.636;0.278;2023-04-30T04:28:50;97047.09;;;17.99;67.52
56719;BME280;42597;40.636;0.278;2023-04-30T04:31:16;97049.81;;;18.80;64.29
56719;BME280;42597;40.636;0.278;2023-04-30T04:33:43;97054.16;;;17.89;66.00
56719;BME280;42597;40.636;0.278;2023-04-30T04:36:08;97066.63;;;17.94;66.29
56719;BME280;42597;40.636;0.278;2023-04-30T04:38:34;97035.06;;;18.59;72.89
56719;BME280;42597;40.636;0.278;2023-04-30T04:41:00;97059.22;;;17.94;66.60
56719;BME280;42597;40.636;0.278;2023-04-30T04:43:25;97058.22;;;18.40;70.04
56719;BME280;42597;40.636;0.278;2023-04-30T04:45:51;97023.84;;;18.98;76.25
56719;BME280;42597;40.636;0.278;2023-04-30T04:48:17;97041.81;;;18.37;66.90
56719;BME280;42597;40.636;0.278;2023-04-30T04:50:42;97037.94;;;18.97;69.05
56719;BME280;42597;40.636;0.278;2023-04-30T04:53:08;97037.66;;;18.81;65.50
56719;BME280;42597;40.636;0.278;2023-04-30T04:55:34;97037.25;;;18.86;70.94
56719;BME280;42597;40.636;0.278;2023-04-30T04:58:00;97053.97;;;19.43;69.18
56719;BME280;42597;40.636;0.278;2023-04-30T05:00:25;97055.78;;;19.57;72.78
56719;BME280;42597;40.636;0.278;2023-04-30T05:02:51;97054.69;;;19.89;69.31
56719;BME280;42597;40.636;0.278;2023-04-30T05:05:17;97049.72;;;18.94;69.74
56719;BME280;42597;40.636;0.278;2023-04-30T05:07:43;97063.38;;;19.42;65.97
56719;BME280;42597;40.636;0.278;2023-04-30T05:10:08;97056.16;;;19.59;71.14
56719;BME280;42597;40.636;0.278;2023-04-30T05:12:34;97061.97;;;18.71;64.40
56719;BME280;42597;40.636;0.278;2023-04-30T05:14:59;97063.69;;;19.07;65.93
56719;BME280;42597;40.636;0.278;2023-04-30T05:17:25;97062.84;;;18.54;63.83
56719;BME280;42597;40.636;0.278;2023-04-30T05:19:51;97048.78;;;19.11;65.91
56719;BME280;42597;40.636;0.278;2023-04-30T05:22:17;97057.69;;;18.63;68.19
56719;BME280;42597;40.636;0.278;2023-04-30T05:24:43;97067.06;;;18.69;67.67
56719;BME280;42597;40.636;0.278;2023-04-30T05:27:08;97056.50;;;18.71;64.73
56719;BME280;42597;40.636;0.278;2023-04-30T05:29:34;97065.41;;;18.09;68.92
56719;BME280;42597;40.636;0.278;2023-04-30T05:32:00;97096.28;;;18.10;64.89
56719;BME280;42597;40.636;0.278;2023-04-30T05:34:26;97098.34;;;18.65;68.20
56719;BME280;42597;40.636;0.278;2023-04-30T05:36:52;97110.31;;;18.08;64.87
56719;BME280;42597;40.636;0.278;2023-04-30T05:39:17;97118.81;;;18.39;65.28
56719;BME280;42597;40.636;0.278;2023-04-30T05:41:43;97132.03;;;18.51;64.74
56719;BME280;42597;40.636;0.278;2023-04-30T05:44:09;97148.25;;;17.95;66.22
56719;BME280;42597;40.636;0.278;2023-04-30T05:46:34;97148.94;;;18.24;65.44
56719;BME280;42597;40.636;0.278;2023-04-30T05:49:00;97146.81;;;18.64;66.40
56719;BME280;42597;40.636;0.278;2023-04-30T05:51:26;97145.13;;;18.92;63.93
56719;BME280;42597;40.636;0.278;2023-04-30T05:53:52;97145.38;;;18.45;64.69
56719;BME280;42597;40.636;0.278;2023-04-30T05:56:18;97171.94;;;18.41;63.65
56719;BME280;42597;40.636;0.278;2023-04-30T05:58:43;97159.84;;;19.19;63.74
56719;BME280;42597;40.636;0.278;2023-04-30T06:01:09;97162.47;;;18.60;63.93
56719;BME280;42597;40.636;0.278;2023-04-30T06:03:36;97160.38;;;18.93;64.40
56719;BME280;42597;40.636;0.278;2023-04-30T06:06:03;97167.53;;;19.39;67.87
56719;BME280;42597;40.636;0.278;2023-04-30T06:08:29;97177.84;;;19.13;63.15
56719;BME280;42597;40.636;0.278;2023-04-30T06:10:55;97174.16;;;19.41;61.61
56719;BME280;42597;40.636;0.278;2023-04-30T06:13:21;97178.09;;;18.63;62.92
56719;BME280;42597;40.636;0.278;2023-04-30T06:15:47;97182.09;;;19.25;63.56
56719;BME280;42597;40.636;0.278;2023-04-30T06:18:12;97177.56;;;19.56;64.57
56719;BME280;42597;40.636;0.278;2023-04-30T06:20:38;97178.31;;;19.60;63.07
56719;BME280;42597;40.636;0.278;2023-04-30T06:23:04;97176.00;;;19.62;63.80
56719;BME280;42597;40.636;0.278;2023-04-30T06:25:30;97169.66;;;19.65;62.06
56719;BME280;42597;40.636;0.278;2023-04-30T06:27:55;97178.00;;;19.51;62.54
56719;BME280;42597;40.636;0.278;2023-04-30T06:30:21;97172.06;;;19.63;64.50
56719;BME280;42597;40.636;0.278;2023-04-30T06:32:47;97180.31;;;19.53;61.29
56719;BME280;42597;40.636;0.278;2023-04-30T06:35:12;97174.59;;;19.33;62.07
56719;BME280;42597;40.636;0.278;2023-04-30T06:37:38;97198.22;;;19.71;62.51
56719;BME280;42597;40.636;0.278;2023-04-30T06:40:05;97196.50;;;19.36;62.49
56719;BME280;42597;40.636;0.278;2023-04-30T06:42:32;97203.50;;;19.41;61.65
56719;BME280;42597;40.636;0.278;2023-04-30T06:45:01;97212.53;;;19.90;62.85
56719;BME280;42597;40.636;0.278;2023-04-30T06:47:28;97205.50;;;18.56;61.96
56719;BME280;42597;40.636;0.278;2023-04-30T06:49:59;97212.97;;;19.85;61.81
56719;BME280;42597;40.636;0.278;2023-04-30T06:52:25;97208.09;;;19.58;64.45
56719;BME280;42597;40.636;0.278;2023-04-30T06:54:50;97204.59;;;20.06;63.60
56719;BME280;42597;40.636;0.278;2023-04-30T06:57:16;97204.19;;;20.04;59.97
56719;BME280;42597;40.636;0.278;2023-04-30T06:59:41;97205.59;;;19.26;60.60
56719;BME280;42597;40.636;0.278;2023-04-30T07:02:07;97203.63;;;20.24;64.01
56719;BME280;42597;40.636;0.278;2023-04-30T07:04:32;97199.53;;;20.39;63.70
56719;BME280;42597;40.636;0.278;2023-04-30T07:06:58;97227.56;;;19.75;58.01
56719;BME280;42597;40.636;0.278;2023-04-30T07:09:27;97192.72;;;20.16;63.15
56719;BME280;42597;40.636;0.278;2023-04-30T07:11:53;97197.31;;;20.27;57.93
56719;BME280;42597;40.636;0.278;2023-04-30T07:14:19;97183.72;;;19.75;60.66
56719;BME280;42597;40.636;0.278;2023-04-30T07:16:45;97196.47;;;20.30;57.37
56719;BME280;42597;40.636;0.278;2023-04-30T07:19:11;97199.44;;;19.67;58.69
56719;BME280;42597;40.636;0.278;2023-04-30T07:21:36;97184.34;;;20.31;58.27
56719;BME280;42597;40.636;0.278;2023-04-30T07:24:02;97182.97;;;20.46;63.71
56719;BME280;42597;40.636;0.278;2023-04-30T07:26:28;97197.88;;;20.45;59.72
56719;BME280;42597;40.636;0.278;2023-04-30T07:28:54;97203.69;;;20.54;60.02
56719;BME280;42597;40.636;0.278;2023-04-30T07:31:19;97208.66;;;20.29;59.01
56719;BME280;42597;40.636;0.278;2023-04-30T07:33:45;97208.91;;;20.41;57.48
56719;BME280;42597;40.636;0.278;2023-04-30T07:36:11;97207.31;;;20.44;56.14
56719;BME280;42597;40.636;0.278;2023-04-30T07:38:36;97210.25;;;20.26;56.70
56719;BME280;42597;40.636;0.278;2023-04-30T07:41:02;97217.28;;;20.31;57.73
56719;BME280;42597;40.636;0.278;2023-04-30T07:43:27;97216.88;;;20.29;55.52
56719;BME280;42597;40.636;0.278;2023-04-30T07:45:53;97216.97;;;20.90;59.55
56719;BME280;42597;40.636;0.278;2023-04-30T07:48:19;97217.72;;;20.94;57.21
56719;BME280;42597;40.636;0.278;2023-04-30T07:50:48;97202.91;;;20.88;59.36
56719;BME280;42597;40.636;0.278;2023-04-30T07:53:14;97221.75;;;20.86;54.19
56719;BME280;42597;40.636;0.278;2023-04-30T07:55:40;97224.97;;;21.11;55.84
56719;BME280;42597;40.636;0.278;2023-04-30T07:58:05;97208.34;;;21.18;56.67
56719;BME280;42597;40.636;0.278;2023-04-30T08:00:31;97214.56;;;21.23;55.27
56719;BME280;42597;40.636;0.278;2023-04-30T08:02:57;97209.38;;;21.01;58.42
56719;BME280;42597;40.636;0.278;2023-04-30T08:05:23;97217.16;;;21.06;57.46
56719;BME280;42597;40.636;0.278;2023-04-30T08:07:49;97227.59;;;21.18;55.20
56719;BME280;42597;40.636;0.278;2023-04-30T08:10:14;97213.22;;;21.38;54.21
56719;BME280;42597;40.636;0.278;2023-04-30T08:12:40;97215.94;;;21.65;57.85
56719;BME280;42597;40.636;0.278;2023-04-30T08:15:06;97208.59;;;21.58;53.15
56719;BME280;42597;40.636;0.278;2023-04-30T08:17:34;97214.41;;;21.64;55.81
56719;BME280;42597;40.636;0.278;2023-04-30T08:20:02;97219.78;;;21.17;52.15
56719;BME280;42597;40.636;0.278;2023-04-30T08:22:28;97220.53;;;21.17;50.37
56719;BME280;42597;40.636;0.278;2023-04-30T08:24:53;97226.91;;;21.68;51.66
56719;BME280;42597;40.636;0.278;2023-04-30T08:27:20;97200.06;;;21.76;51.79
56719;BME280;42597;40.636;0.278;2023-04-30T08:29:46;97203.22;;;21.75;53.24
56719;BME280;42597;40.636;0.278;2023-04-30T08:32:12;97228.31;;;21.23;49.17
56719;BME280;42597;40.636;0.278;2023-04-30T08:34:38;97213.16;;;21.92;54.79
56719;BME280;42597;40.636;0.278;2023-04-30T08:37:06;97209.69;;;22.11;50.36
56719;BME280;42597;40.636;0.278;2023-04-30T08:39:31;97215.19;;;22.11;51.96
56719;BME280;42597;40.636;0.278;2023-04-30T08:42:01;97184.59;;;22.06;57.69
56719;BME280;42597;40.636;0.278;2023-04-30T08:44:29;97203.94;;;22.26;56.63
56719;BME280;42597;40.636;0.278;2023-04-30T08:46:56;97208.25;;;22.03;51.47
56719;BME280;42597;40.636;0.278;2023-04-30T08:49:24;97220.88;;;21.50;47.36
56719;BME280;42597;40.636;0.278;2023-04-30T08:51:50;97214.22;;;21.75;47.25
56719;BME280;42597;40.636;0.278;2023-04-30T08:54:17;97229.41;;;22.06;47.52
56719;BME280;42597;40.636;0.278;2023-04-30T08:56:46;97224.41;;;22.25;46.51
56719;BME280;42597;40.636;0.278;2023-04-30T08:59:12;97229.81;;;22.52;46.21
56719;BME280;42597;40.636;0.278;2023-04-30T09:01:38;97221.25;;;22.46;46.23
56719;BME280;42597;40.636;0.278;2023-04-30T09:04:05;97221.03;;;22.37;45.76
56719;BME280;42597;40.636;0.278;2023-04-30T09:06:30;97219.84;;;22.58;50.59
56719;BME280;42597;40.636;0.278;2023-04-30T09:08:56;97219.78;;;22.61;50.44
56719;BME280;42597;40.636;0.278;2023-04-30T09:11:31;97220.44;;;22.26;50.67
56719;BME280;42597;40.636;0.278;2023-04-30T09:13:58;97214.53;;;22.27;46.75
56719;BME280;42597;40.636;0.278;2023-04-30T09:16:25;97209.56;;;22.18;45.30
56719;BME280;42597;40.636;0.278;2023-04-30T09:18:51;97212.63;;;22.24;44.70
56719;BME280;42597;40.636;0.278;2023-04-30T09:21:35;97215.31;;;22.04;44.58
56719;BME280;42597;40.636;0.278;2023-04-30T09:24:03;97210.19;;;22.70;45.39
56719;BME280;42597;40.636;0.278;2023-04-30T09:26:36;97216.94;;;22.85;45.19
56719;BME280;42597;40.636;0.278;2023-04-30T09:29:02;97209.47;;;22.85;45.97
56719;BME280;42597;40.636;0.278;2023-04-30T09:31:33;97223.91;;;22.93;45.54
56719;BME280;42597;40.636;0.278;2023-04-30T09:33:59;97222.09;;;22.63;46.70
56719;BME280;42597;40.636;0.278;2023-04-30T09:36:25;97233.00;;;22.27;47.53
56719;BME280;42597;40.636;0.278;2023-04-30T09:38:52;97226.00;;;22.65;46.19
56719;BME280;42597;40.636;0.278;2023-04-30T09:41:25;97229.59;;;22.82;48.26
56719;BME280;42597;40.636;0.278;2023-04-30T09:43:56;97219.63;;;22.88;46.00
56719;BME280;42597;40.636;0.278;2023-04-30T09:46:29;97219.91;;;22.54;46.22
56719;BME280;42597;40.636;0.278;2023-04-30T09:48:59;97218.06;;;23.07;48.30
56719;BME280;42597;40.636;0.278;2023-04-30T09:51:25;97216.88;;;22.88;44.68
56719;BME280;42597;40.636;0.278;2023-04-30T09:53:52;97217.38;;;23.03;46.12
56719;BME280;42597;40.636;0.278;2023-04-30T09:56:23;97228.69;;;22.89;47.94
56719;BME280;42597;40.636;0.278;2023-04-30T09:58:53;97238.22;;;22.64;46.67
56719;BME280;42597;40.636;0.278;2023-04-30T10:01:28;97232.78;;;22.61;44.08
56719;BME280;42597;40.636;0.278;2023-04-30T10:03:55;97254.09;;;22.77;43.21
56719;BME280;42597;40.636;0.278;2023-04-30T10:06:23;97225.88;;;22.93;42.10
56719;BME280;42597;40.636;0.278;2023-04-30T10:08:55;97224.72;;;22.90;42.63
56719;BME280;42597;40.636;0.278;2023-04-30T10:11:25;97227.59;;;23.39;47.92
56719;BME280;42597;40.636;0.278;2023-04-30T10:14:00;97228.22;;;23.47;43.67
56719;BME280;42597;40.636;0.278;2023-04-30T10:19:02;97222.44;;;23.25;42.22
56719;BME280;42597;40.636;0.278;2023-04-30T10:21:31;97225.06;;;23.48;42.82
56719;BME280;42597;40.636;0.278;2023-04-30T10:23:56;97210.38;;;23.51;42.69
56719;BME280;42597;40.636;0.278;2023-04-30T10:26:23;97218.25;;;23.53;42.45
56719;BME280;42597;40.636;0.278;2023-04-30T10:28:49;97213.09;;;23.71;46.72
56719;BME280;42597;40.636;0.278;2023-04-30T10:31:18;97193.50;;;23.49;43.27
56719;BME280;42597;40.636;0.278;2023-04-30T10:37:06;97201.63;;;23.56;44.04
56719;BME280;42597;40.636;0.278;2023-04-30T10:39:36;97185.75;;;23.44;43.06
56719;BME280;42597;40.636;0.278;2023-04-30T10:42:08;97185.31;;;23.62;47.00
56719;BME280;42597;40.636;0.278;2023-04-30T10:44:38;97189.28;;;23.61;45.07
56719;BME280;42597;40.636;0.278;2023-04-30T10:47:05;97185.09;;;23.73;43.62
56719;BME280;42597;40.636;0.278;2023-04-30T10:49:31;97185.75;;;23.93;43.42
56719;BME280;42597;40.636;0.278;2023-04-30T10:52:02;97190.84;;;23.95;42.64
56719;BME280;42597;40.636;0.278;2023-04-30T10:54:32;97183.50;;;24.04;43.86
56719;BME280;42597;40.636;0.278;2023-04-30T10:57:13;97183.59;;;24.01;40.44
56719;BME280;42597;40.636;0.278;2023-04-30T11:02:45;97182.44;;;24.14;41.78
56719;BME280;42597;40.636;0.278;2023-04-30T11:05:16;97187.13;;;24.01;41.64
56719;BME280;42597;40.636;0.278;2023-04-30T11:07:50;97175.56;;;24.06;46.42
56719;BME280;42597;40.636;0.278;2023-04-30T11:10:20;97188.69;;;24.02;43.29
56719;BME280;42597;40.636;0.278;2023-04-30T11:12:48;97180.94;;;23.97;40.34
56719;BME280;42597;40.636;0.278;2023-04-30T11:15:18;97181.72;;;24.27;42.02
56719;BME280;42597;40.636;0.278;2023-04-30T11:17:46;97184.28;;;24.34;41.72
56719;BME280;42597;40.636;0.278;2023-04-30T11:20:16;97160.06;;;24.25;41.41
56719;BME280;42597;40.636;0.278;2023-04-30T11:22:43;97173.78;;;24.29;43.79
56719;BME280;42597;40.636;0.278;2023-04-30T11:25:10;97175.66;;;24.32;45.93
56719;BME280;42597;40.636;0.278;2023-04-30T11:27:41;97170.25;;;24.28;39.89
56719;BME280;42597;40.636;0.278;2023-04-30T11:30:14;97170.81;;;24.36;40.42
56719;BME280;42597;40.636;0.278;2023-04-30T11:32:42;97153.78;;;24.54;43.72
56719;BME280;42597;40.636;0.278;2023-04-30T11:35:10;97153.69;;;24.57;39.59
56719;BME280;42597;40.636;0.278;2023-04-30T11:37:39;97158.13;;;24.68;40.57
56719;BME280;42597;40.636;0.278;2023-04-30T11:40:08;97159.88;;;24.61;41.97
56719;BME280;42597;40.636;0.278;2023-04-30T11:42:39;97159.34;;;24.67;40.12
56719;BME280;42597;40.636;0.278;2023-04-30T11:45:14;97159.00;;;24.65;40.54
56719;BME280;42597;40.636;0.278;2023-04-30T11:47:49;97158.69;;;24.75;37.50
56719;BME280;42597;40.636;0.278;2023-04-30T11:50:17;97162.97;;;24.63;40.15
56719;BME280;42597;40.636;0.278;2023-04-30T11:52:50;97157.25;;;24.71;41.03
56719;BME280;42597;40.636;0.278;2023-04-30T11:55:18;97141.34;;;24.75;38.75
56719;BME280;42597;40.636;0.278;2023-04-30T11:57:46;97163.44;;;24.75;42.23
56719;BME280;42597;40.636;0.278;2023-04-30T12:00:17;97169.81;;;24.59;41.04
56719;BME280;42597;40.636;0.278;2023-04-30T12:02:45;97174.56;;;24.58;37.13
56719;BME280;42597;40.636;0.278;2023-04-30T12:05:18;97155.78;;;24.53;43.06
56719;BME280;42597;40.636;0.278;2023-04-30T12:07:49;97168.41;;;24.67;41.37
56719;BME280;42597;40.636;0.278;2023-04-30T12:10:16;97169.44;;;24.86;41.29
56719;BME280;42597;40.636;0.278;2023-04-30T12:12:43;97142.47;;;24.90;38.11
56719;BME280;42597;40.636;0.278;2023-04-30T12:17:38;97156.06;;;24.97;40.89
56719;BME280;42597;40.636;0.278;2023-04-30T12:20:05;97153.53;;;24.90;41.46
56719;BME280;42597;40.636;0.278;2023-04-30T12:22:31;97152.53;;;24.97;38.22
56719;BME280;42597;40.636;0.278;2023-04-30T12:24:58;97149.69;;;25.13;37.39
56719;BME280;42597;40.636;0.278;2023-04-30T12:27:24;97151.22;;;25.01;40.73
56719;BME280;42597;40.636;0.278;2023-04-30T12:29:50;97141.13;;;25.07;38.34
56719;BME280;42597;40.636;0.278;2023-04-30T12:32:19;97145.38;;;25.25;36.98
56719;BME280;42597;40.636;0.278;2023-04-30T12:34:45;97145.81;;;25.49;38.07
56719;BME280;42597;40.636;0.278;2023-04-30T12:37:14;97151.53;;;25.03;40.59
56719;BME280;42597;40.636;0.278;2023-04-30T12:39:40;97162.47;;;24.94;36.27
56719;BME280;42597;40.636;0.278;2023-04-30T12:42:06;97153.97;;;25.01;37.47
56719;BME280;42597;40.636;0.278;2023-04-30T12:44:41;97152.56;;;25.22;39.66
56719;BME280;42597;40.636;0.278;2023-04-30T12:47:08;97151.63;;;25.00;36.27
56719;BME280;42597;40.636;0.278;2023-04-30T12:49:34;97155.16;;;25.00;35.53
56719;BME280;42597;40.636;0.278;2023-04-30T12:52:07;97148.88;;;24.87;34.47
56719;BME280;42597;40.636;0.278;2023-04-30T12:54:35;97144.03;;;25.42;35.93
56719;BME280;42597;40.636;0.278;2023-04-30T12:57:02;97147.16;;;25.19;37.63
56719;BME280;42597;40.636;0.278;2023-04-30T12:59:32;97154.22;;;25.20;34.65
56719;BME280;42597;40.636;0.278;2023-04-30T13:02:08;97151.53;;;25.03;36.88
56719;BME280;42597;40.636;0.278;2023-04-30T13:04:34;97154.06;;;24.85;35.01
56719;BME280;42597;40.636;0.278;2023-04-30T13:07:01;97144.22;;;24.84;35.77
56719;BME280;42597;40.636;0.278;2023-04-30T13:09:27;97145.91;;;24.94;37.84
56719;BME280;42597;40.636;0.278;2023-04-30T13:11:52;97141.13;;;24.82;33.07
56719;BME280;42597;40.636;0.278;2023-04-30T13:14:18;97144.09;;;24.87;34.31
56719;BME280;42597;40.636;0.278;2023-04-30T13:16:44;97132.75;;;24.98;39.23
56719;BME280;42597;40.636;0.278;2023-04-30T13:19:09;97134.66;;;25.14;40.84
56719;BME280;42597;40.636;0.278;2023-04-30T13:21:36;97139.03;;;24.99;41.02
56719;BME280;42597;40.636;0.278;2023-04-30T13:24:01;97135.41;;;25.15;35.83
56719;BME280;42597;40.636;0.278;2023-04-30T13:26:27;97124.34;;;25.15;39.26
56719;BME280;42597;40.636;0.278;2023-04-30T13:28:54;97123.78;;;25.07;37.03
56719;BME280;42597;40.636;0.278;2023-04-30T13:31:20;97120.34;;;24.90;33.48